Time;durP1;ratioP1;P1;durP2;ratioP2;P2;SDS_P1;SDS_P2;PMS_P1;PMS_P2;Temp;Humidity;BMP_temperature;BMP_pressure;BME280_temperature;BME280_humidity;BME280_pressure;Samples;Min_cycle;Max_cycle;Signal;HPM_P1;HPM_P2
2024/04/04 00:01:51;;;;;;;14.10;8.30;;;;;;;6.83;100.00;99986.05;213039;1297;141042;-83
2024/04/04 00:06:51;;;;;;;16.60;8.70;;;;;;;6.80;100.00;99982.09;213225;1295;139478;-82
2024/04/04 00:11:52;;;;;;;14.60;8.00;;;;;;;6.78;100.00;99980.71;212685;1297;142226;-82
2024/04/04 00:16:52;;;;;;;13.20;7.60;;;;;;;6.77;100.00;99978.35;213094;1296;139191;-82
2024/04/04 00:21:52;;;;;;;16.60;8.70;;;;;;;6.75;100.00;99964.32;212184;1296;507799;-82
2024/04/04 00:26:53;;;;;;;21.50;12.40;;;;;;;6.74;100.00;99961.65;213866;1296;138903;-81
2024/04/04 00:31:53;;;;;;;25.30;10.50;;;;;;;6.73;100.00;99958.67;212895;1296;141799;-83
2024/04/04 00:36:54;;;;;;;24.10;9.90;;;;;;;6.71;100.00;99952.70;213424;1295;139516;-81
2024/04/04 00:41:54;;;;;;;17.20;8.50;;;;;;;6.69;100.00;99948.06;212607;1297;140441;-82
2024/04/04 00:46:55;;;;;;;18.40;8.50;;;;;;;6.66;100.00;99943.23;213774;1299;138745;-83
2024/04/04 00:51:55;;;;;;;15.70;8.70;;;;;;;6.63;100.00;99940.59;212981;1297;141733;-83
2024/04/04 00:56:56;;;;;;;17.00;7.50;;;;;;;6.62;100.00;99944.16;213508;1296;138753;-82
2024/04/04 01:01:56;;;;;;;14.80;8.30;;;;;;;6.57;100.00;99942.73;214004;1296;141272;-82
2024/04/04 01:06:57;;;;;;;13.90;7.10;;;;;;;6.56;100.00;99940.55;213719;1300;139145;-80
2024/04/04 01:11:57;;;;;;;13.00;7.20;;;;;;;6.54;100.00;99941.84;212415;1297;144442;-82
2024/04/04 01:16:58;;;;;;;16.20;8.20;;;;;;;6.53;100.00;99932.29;212324;1295;138686;-81
2024/04/04 01:21:58;;;;;;;18.20;8.20;;;;;;;6.49;100.00;99927.91;212602;1295;140589;-81
2024/04/04 01:26:59;;;;;;;15.90;9.30;;;;;;;6.50;100.00;99928.39;212708;1297;141136;-83
2024/04/04 01:32:00;;;;;;;14.90;9.90;;;;;;;6.47;100.00;99918.27;211909;1300;141021;-82
2024/04/04 01:37:00;;;;;;;20.60;9.70;;;;;;;6.46;100.00;99915.59;212280;1300;138553;-82
2024/04/04 01:42:01;;;;;;;17.00;8.90;;;;;;;6.46;100.00;99908.26;211648;1299;141118;-82
2024/04/04 01:47:01;;;;;;;16.60;9.20;;;;;;;6.46;100.00;99917.71;212212;1298;138875;-82
2024/04/04 01:52:02;;;;;;;17.00;9.30;;;;;;;6.46;100.00;99912.94;211786;1297;142204;-82
2024/04/04 01:57:02;;;;;;;18.30;8.60;;;;;;;6.48;100.00;99914.20;212197;1299;139998;-82
2024/04/04 02:02:03;;;;;;;17.50;8.40;;;;;;;6.48;100.00;99906.41;211732;1297;139701;-83
2024/04/04 02:07:04;;;;;;;17.10;8.60;;;;;;;6.48;100.00;99901.89;212167;1297;140084;-82
2024/04/04 02:12:04;;;;;;;19.10;10.10;;;;;;;6.51;100.00;99899.73;211820;1297;141330;-82
2024/04/04 02:17:05;;;;;;;18.10;8.90;;;;;;;6.53;100.00;99893.23;212682;1297;138854;-81
2024/04/04 02:22:05;;;;;;;18.50;10.40;;;;;;;6.54;100.00;99890.05;211426;1297;140497;-82
2024/04/04 02:27:05;;;;;;;19.40;10.70;;;;;;;6.56;100.00;99886.48;212002;1297;138922;-82
2024/04/04 02:32:06;;;;;;;20.10;10.70;;;;;;;6.57;100.00;99888.38;211799;1297;140559;-82
2024/04/04 02:37:06;;;;;;;20.20;10.60;;;;;;;6.59;100.00;99885.68;212238;1297;139262;-82
2024/04/04 02:42:08;;;;;;;20.90;10.90;;;;;;;6.61;100.00;99887.28;211628;1300;140671;-82
2024/04/04 02:47:09;;;;;;;21.80;11.40;;;;;;;6.63;100.00;99876.22;212198;1297;139066;-81
2024/04/04 02:52:09;;;;;;;20.00;11.00;;;;;;;6.66;100.00;99874.78;211628;1296;140756;-83
2024/04/04 02:57:10;;;;;;;21.40;11.30;;;;;;;6.69;100.00;99868.44;212145;1300;139280;-82
2024/04/04 03:02:10;;;;;;;20.10;11.40;;;;;;;6.72;100.00;99879.67;211771;1300;141056;-82
2024/04/04 03:07:11;;;;;;;19.30;11.00;;;;;;;6.76;100.00;99878.48;212882;1296;139194;-81
2024/04/04 03:12:11;;;;;;;24.50;13.10;;;;;;;6.80;100.00;99873.25;211647;1297;142071;-82
2024/04/04 03:17:12;;;;;;;20.00;12.00;;;;;;;6.84;100.00;99876.83;212072;1297;138878;-82
2024/04/04 03:22:13;;;;;;;20.40;12.30;;;;;;;6.86;100.00;99875.67;211612;1299;141524;-82
2024/04/04 03:27:13;;;;;;;21.70;13.10;;;;;;;6.86;100.00;99869.75;212145;1300;138895;-82
2024/04/04 03:32:14;;;;;;;22.40;13.10;;;;;;;6.87;100.00;99872.50;211755;1295;141395;-82
2024/04/04 03:37:14;;;;;;;26.10;13.90;;;;;;;6.90;100.00;99877.31;212309;1297;99416;-82
2024/04/04 03:42:15;;;;;;;21.80;12.70;;;;;;;6.91;100.00;99870.23;211531;1296;141336;-83
2024/04/04 03:47:40;;;;;;;20.20;12.80;;;;;;;6.96;100.00;99870.40;212195;1295;639249;-84
2024/04/04 03:52:40;;;;;;;20.70;13.20;;;;;;;6.96;100.00;99865.15;211473;1297;139464;-83
2024/04/04 03:57:41;;;;;;;28.00;15.70;;;;;;;6.99;100.00;99866.69;211806;1298;284984;-83
2024/04/04 04:02:43;;;;;;;26.00;16.20;;;;;;;7.03;100.00;99868.00;212454;1295;140533;-82
2024/04/04 04:07:43;;;;;;;23.50;15.00;;;;;;;7.04;100.00;99874.03;212533;1296;95292;-82
2024/04/04 04:12:43;;;;;;;31.00;18.00;;;;;;;7.05;100.00;99872.35;211904;1295;140947;-83
2024/04/04 04:17:45;;;;;;;24.50;15.70;;;;;;;7.09;100.00;99871.05;212406;1297;137991;-84
2024/04/04 04:22:45;;;;;;;26.20;16.30;;;;;;;7.10;100.00;99870.30;211930;1295;140234;-83
2024/04/04 04:27:46;;;;;;;29.60;17.60;;;;;;;7.12;100.00;99867.43;212258;1295;138264;-83
2024/04/04 04:32:46;;;;;;;27.90;17.10;;;;;;;7.14;100.00;99865.44;212175;1293;139949;-81
2024/04/04 04:37:46;;;;;;;32.30;19.30;;;;;;;7.15;100.00;99867.41;212866;1297;96614;-83
2024/04/04 04:42:47;;;;;;;35.40;20.30;;;;;;;7.14;100.00;99860.35;212277;1296;139645;-82
2024/04/04 04:47:47;;;;;;;36.20;22.00;;;;;;;7.15;100.00;99858.17;212801;1296;138193;-83
2024/04/04 04:52:48;;;;;;;28.30;17.90;;;;;;;7.15;100.00;99858.89;212292;1291;140129;-83
2024/04/04 04:57:48;;;;;;;29.60;18.00;;;;;;;7.14;100.00;99858.33;213366;1293;138200;-83
2024/04/04 05:02:51;;;;;;;34.60;18.80;;;;;;;7.14;100.00;99860.51;212429;1293;140429;-83
2024/04/04 05:07:52;;;;;;;37.40;21.10;;;;;;;7.14;100.00;99858.41;213027;1294;106063;-82
2024/04/04 05:12:52;;;;;;;47.60;26.70;;;;;;;7.18;100.00;99860.89;212347;1291;140053;-83
2024/04/04 05:17:53;;;;;;;47.60;24.30;;;;;;;7.22;100.00;99853.52;213086;1292;138305;-83
2024/04/04 05:22:54;;;;;;;32.50;19.20;;;;;;;7.27;100.00;99847.73;212307;1295;140450;-83
2024/04/04 05:27:55;;;;;;;30.20;18.60;;;;;;;7.33;100.00;99850.02;212848;1292;138538;-84
2024/04/04 05:32:55;;;;;;;40.60;20.40;;;;;;;7.40;100.00;99851.91;212401;1294;140107;-84
2024/04/04 05:37:56;;;;;;;32.50;19.70;;;;;;;7.48;100.00;99859.70;212945;1291;97109;-83
2024/04/04 05:42:56;;;;;;;35.90;21.90;;;;;;;7.62;100.00;99863.33;212449;1291;139783;-81
2024/04/04 05:47:56;;;;;;;39.30;24.00;;;;;;;7.81;100.00;99867.58;213455;1291;138289;-79
2024/04/04 05:52:57;;;;;;;115.20;105.90;;;;;;;8.01;100.00;99867.83;211458;1294;141122;-77
2024/04/04 05:57:57;;;;;;;127.80;118.30;;;;;;;8.23;100.00;99874.14;212086;1297;138657;-80
2024/04/04 06:02:58;;;;;;;183.60;170.70;;;;;;;8.44;100.00;99876.11;212396;1291;140269;-80
2024/04/04 06:08:00;;;;;;;278.70;258.50;;;;;;;8.66;100.00;99868.04;213884;1297;97933;-78
2024/04/04 06:13:00;;;;;;;273.60;253.90;;;;;;;8.88;100.00;99869.42;211705;1297;140192;-78
2024/04/04 06:18:01;;;;;;;393.70;364.70;;;;;;;9.08;100.00;99867.30;212181;1292;139205;-78
2024/04/04 06:23:02;;;;;;;459.30;424.40;;;;;;;9.26;100.00;99868.63;211942;1292;139792;-79
2024/04/04 06:28:02;;;;;;;501.80;465.10;;;;;;;9.43;100.00;99874.48;212246;1297;140038;-78
2024/04/04 06:33:03;;;;;;;485.20;449.00;;;;;;;9.56;100.00;99872.20;213146;1294;142318;-78
2024/04/04 06:38:04;;;;;;;595.40;548.00;;;;;;;9.69;100.00;99882.00;211687;1297;96656;-79
2024/04/04 06:43:04;;;;;;;676.00;621.30;;;;;;;9.82;100.00;99881.38;211583;1297;140190;-79
2024/04/04 06:48:05;;;;;;;598.90;552.30;;;;;;;9.93;100.00;99880.18;211724;1291;138567;-78
2024/04/04 06:53:06;;;;;;;888.80;803.30;;;;;;;10.03;100.00;99876.86;211090;1297;140679;-79
2024/04/04 06:58:07;;;;;;;743.00;677.50;;;;;;;10.17;100.00;99876.92;211593;1297;139464;-79
2024/04/04 07:03:08;;;;;;;861.20;776.40;;;;;;;10.32;100.00;99882.88;210982;1292;140540;-78
2024/04/04 07:08:09;;;;;;;917.90;819.10;;;;;;;10.48;100.00;99887.80;211676;1307;106444;-79
2024/04/04 07:13:09;;;;;;;1025.40;879.10;;;;;;;10.63;100.00;99895.70;211065;1292;140512;-79
2024/04/04 07:18:10;;;;;;;943.30;841.40;;;;;;;10.73;100.00;99902.56;211577;1292;139067;-79
2024/04/04 07:23:10;;;;;;;997.70;870.00;;;;;;;10.78;100.00;99908.08;212306;1292;140653;-80
2024/04/04 07:28:10;;;;;;;1432.60;941.40;;;;;;;10.83;100.00;99908.80;212938;1292;139208;-79
2024/04/04 07:33:11;;;;;;;1054.80;896.10;;;;;;;10.87;100.00;99906.84;212373;1292;140893;-79
2024/04/04 07:38:13;;;;;;;1222.80;964.10;;;;;;;10.92;100.00;99909.59;213567;1296;97571;-78
2024/04/04 07:43:13;;;;;;;1332.90;949.40;;;;;;;10.98;100.00;99910.70;211041;1297;140851;-79
2024/04/04 07:48:16;;;;;;;1805.60;999.90;;;;;;;11.08;100.00;99915.27;212841;1292;139171;-79
2024/04/04 07:53:16;;;;;;;1475.30;991.70;;;;;;;11.16;100.00;99910.08;211318;1292;140936;-79
2024/04/04 07:58:16;;;;;;;1753.00;988.80;;;;;;;11.28;100.00;99908.67;211748;1297;139408;-79
2024/04/04 08:03:17;;;;;;;1907.70;999.90;;;;;;;11.44;100.00;99904.96;211085;1297;142715;-78
2024/04/04 08:08:18;;;;;;;1999.80;999.90;;;;;;;11.62;100.00;99908.34;211533;1297;139226;-78
2024/04/04 08:13:18;;;;;;;1999.90;999.90;;;;;;;11.86;100.00;99908.87;211132;1292;140742;-80
2024/04/04 08:18:19;;;;;;;1999.90;999.90;;;;;;;12.05;100.00;99914.56;211600;1292;139307;-79
2024/04/04 08:23:19;;;;;;;1999.90;999.90;;;;;;;12.17;100.00;99919.55;211063;1293;140766;-78
2024/04/04 08:28:20;;;;;;;1999.90;999.90;;;;;;;12.33;100.00;99915.02;211528;1292;139486;-78
2024/04/04 08:33:21;;;;;;;1999.90;999.90;;;;;;;12.42;100.00;99919.77;211780;1292;141779;-80
2024/04/04 08:38:21;;;;;;;1999.90;999.90;;;;;;;12.49;100.00;99920.52;211697;1298;139325;-78
2024/04/04 08:43:22;;;;;;;1999.90;999.90;;;;;;;12.58;100.00;99917.17;212496;1292;142473;-80
2024/04/04 08:48:25;;;;;;;1999.90;999.90;;;;;;;12.69;100.00;99918.46;212799;1295;139422;-80
2024/04/04 08:53:27;;;;;;;1999.90;999.90;;;;;;;12.82;100.00;99919.88;212189;1296;141685;-80
2024/04/04 08:58:27;;;;;;;1999.90;999.90;;;;;;;12.97;100.00;99918.54;213008;1297;139176;-80
2024/04/04 09:03:29;;;;;;;1999.90;999.90;;;;;;;13.13;100.00;99920.64;212211;1292;140824;-80
2024/04/04 09:08:30;;;;;;;1999.90;999.90;;;;;;;13.29;100.00;99923.20;212800;1293;139598;-80
2024/04/04 09:13:30;;;;;;;1999.90;999.90;;;;;;;13.47;100.00;99923.30;212438;1294;141409;-80
2024/04/04 09:18:31;;;;;;;1999.90;999.90;;;;;;;13.60;100.00;99921.12;213161;1296;139316;-80
2024/04/04 09:23:31;;;;;;;1999.90;999.90;;;;;;;13.82;100.00;99910.16;211099;1297;142502;-80
2024/04/04 09:28:32;;;;;;;1999.90;999.90;;;;;;;14.15;100.00;99911.92;212177;1292;139723;-80
2024/04/04 09:33:33;;;;;;;1999.90;999.90;;;;;;;14.44;100.00;99914.45;211050;1292;141000;-81
2024/04/04 09:38:34;;;;;;;1999.90;999.90;;;;;;;14.60;100.00;99919.77;212976;1297;139209;-81
2024/04/04 09:43:35;;;;;;;1999.90;999.90;;;;;;;14.86;100.00;99919.80;212655;1294;141022;-82
2024/04/04 09:48:37;;;;;;;1999.90;999.90;;;;;;;15.01;100.00;99924.26;213155;1292;139008;-79
2024/04/04 09:53:38;;;;;;;1999.90;999.90;;;;;;;15.11;100.00;99930.68;212693;1292;142661;-80
2024/04/04 09:58:42;;;;;;;1999.90;999.90;;;;;;;15.04;100.00;99940.04;213067;1294;139403;-80
2024/04/04 10:03:59;;;;;;;1999.90;999.90;;;;;;;15.33;100.00;99928.12;212455;1292;140881;-80
2024/04/04 10:08:59;;;;;;;1999.90;999.90;;;;;;;15.57;100.00;99931.61;212168;1292;141074;-80
2024/04/04 10:14:03;;;;;;;1999.90;999.90;;;;;;;15.87;100.00;99929.17;212896;1293;97956;-80
2024/04/04 10:19:14;;;;;;;1999.90;999.90;;;;;;;16.31;100.00;99931.42;212251;1295;143300;-80
2024/04/04 10:24:28;;;;;;;1999.90;999.90;;;;;;;16.59;100.00;99925.23;213466;1295;139464;-80
2024/04/04 10:29:35;;;;;;;1999.90;999.90;;;;;;;16.90;99.72;99915.18;212689;1295;141356;-80
2024/04/04 10:34:36;;;;;;;1999.90;999.90;;;;;;;17.20;97.45;99916.13;213080;1295;139641;-81
2024/04/04 10:39:36;;;;;;;1999.90;999.90;;;;;;;17.35;95.65;99906.00;212901;1292;140872;-82
2024/04/04 10:44:37;;;;;;;1999.90;999.90;;;;;;;17.28;92.56;99901.98;213725;1292;139731;-82
2024/04/04 10:49:38;;;;;;;1999.90;999.90;;;;;;;17.02;92.85;99895.69;213321;1293;141465;-81
2024/04/04 10:54:38;;;;;;;1999.90;999.90;;;;;;;17.03;92.99;99894.39;214098;1291;139225;-82
2024/04/04 10:59:39;;;;;;;1636.80;910.90;;;;;;;17.11;93.88;99902.14;213270;1297;140479;-80
2024/04/04 11:04:40;;;;;;;1939.00;999.90;;;;;;;17.04;90.43;99900.23;214311;1296;139360;-80
2024/04/04 11:09:40;;;;;;;1999.90;999.90;;;;;;;16.93;87.35;99900.25;214090;1296;142634;-80
2024/04/04 11:14:41;;;;;;;1863.60;999.90;;;;;;;16.93;87.32;99901.20;214660;1293;139179;-81
2024/04/04 11:19:42;;;;;;;1863.50;999.90;;;;;;;17.06;86.11;99908.05;214170;1292;140871;-81
2024/04/04 11:24:43;;;;;;;1890.60;999.90;;;;;;;16.98;84.55;99902.13;215229;1296;138732;-80
2024/04/04 11:29:43;;;;;;;1193.00;972.10;;;;;;;17.03;83.39;99905.73;214491;1297;141393;-79
2024/04/04 11:34:45;;;;;;;1254.40;974.70;;;;;;;17.06;82.64;99911.94;214925;1296;138686;-79
2024/04/04 11:39:45;;;;;;;1523.80;984.60;;;;;;;17.01;80.43;99914.13;214221;1297;140232;-81
2024/04/04 11:44:46;;;;;;;1981.90;999.90;;;;;;;16.90;81.79;99902.55;214503;1292;138347;-80
2024/04/04 11:49:47;;;;;;;1828.60;999.90;;;;;;;17.22;85.44;99893.20;214202;1292;142116;-80
2024/04/04 11:54:48;;;;;;;1295.80;955.70;;;;;;;17.60;80.19;99889.80;214855;1295;138143;-81
2024/04/04 11:59:48;;;;;;;1014.40;911.30;;;;;;;17.56;78.02;99890.46;213689;1292;142065;-80
2024/04/04 12:04:48;;;;;;;1250.90;991.70;;;;;;;17.52;76.73;99889.30;214258;1294;139689;-82
2024/04/04 12:09:49;;;;;;;1632.30;999.90;;;;;;;17.57;77.03;99881.86;214241;1295;141250;-83
2024/04/04 12:14:49;;;;;;;1060.60;942.50;;;;;;;17.68;77.69;99868.78;215118;1291;138638;-81
2024/04/04 12:19:50;;;;;;;1167.50;884.70;;;;;;;17.79;75.80;99871.10;215137;1291;140999;-80
2024/04/04 12:24:50;;;;;;;1172.40;978.40;;;;;;;17.81;76.14;99856.80;215216;1293;138383;-81
2024/04/04 12:29:51;;;;;;;1092.10;970.80;;;;;;;17.97;75.98;99854.05;213963;1291;140430;-79
2024/04/04 12:34:52;;;;;;;1180.80;984.80;;;;;;;18.03;75.34;99846.41;214315;1292;138738;-79
2024/04/04 12:39:52;;;;;;;1186.40;957.50;;;;;;;18.01;75.57;99842.70;213768;1292;140308;-78
2024/04/04 12:44:53;;;;;;;842.50;758.80;;;;;;;18.00;75.64;99835.74;214109;1292;138597;-80
2024/04/04 12:49:53;;;;;;;1012.30;911.80;;;;;;;17.85;72.76;99832.27;213911;1292;140555;-81
2024/04/04 12:54:53;;;;;;;944.80;863.30;;;;;;;17.71;73.49;99827.11;214047;1295;139468;-81
2024/04/04 12:59:54;;;;;;;906.90;823.40;;;;;;;17.68;72.62;99827.75;213709;1291;139996;-82
